Flight Track Log - Related Links

Times and Time Zones

All times are in EDT time to prevent confusion due to time zone crossing. See the N163CA flight status page for this flight to view local times or setup timezone preferences in your user account.

Time Position Orientation Groundspeed Altitude Reporting Facility
EDT Latitude Longitude Course Direction KTS MPH feet Rate Location/Type
Sun 09:26:00 PM 30.3059 -84.2430 134° Southeast  Level Estimated
Sun 09:27:00 PM 30.2907 -84.2250 134° Southeast  Level FlightAware Approximate
Sun 09:28:00 PM 30.2756 -84.2070 134° Southeast  Level FlightAware Approximate
Sun 09:29:00 PM 30.2604 -84.1890 134° Southeast  Level FlightAware Approximate
Sun 09:29:43 PM 30.1589 -84.0506 134° Southeast 118 136 4,900  Level Jacksonville Center
Sun 09:30:00 PM 30.2453 -84.1711 134° Southeast  Level FlightAware Approximate
Sun 09:30:43 PM 30.1425 -84.0192 121° Southeast 124 143 4,900  Level Jacksonville Center
Sun 09:31:00 PM 30.2301 -84.1531 134° Southeast  Level FlightAware Approximate
Sun 09:31:43 PM 30.1219 -83.9997 141° Southeast 119 137 4,900  Level Jacksonville Center
Sun 09:32:00 PM 30.2150 -84.1351 134° Southeast  Level FlightAware Approximate
Sun 09:32:43 PM 30.0969 -83.9731 137° Southeast 114 131 4,900  Level Jacksonville Center
Sun 09:33:00 PM 30.1998 -84.1172 134° Southeast  Level FlightAware Approximate
Sun 09:33:43 PM 30.0722 -83.9486 139° Southeast 114 131 4,900  Level Jacksonville Center
Sun 09:34:00 PM 30.1847 -84.0992 134° Southeast  Level FlightAware Approximate
Sun 09:34:43 PM 30.0494 -83.9244 137° Southeast 114 131 4,900  Level Jacksonville Center
Sun 09:35:43 PM 30.0267 -83.9003 137° Southeast 114 131 4,900  Level Jacksonville Center
Sun 09:36:43 PM 30.0039 -83.8736 135° Southeast 114 131 4,900  Level Jacksonville Center
Sun 09:37:43 PM 29.9811 -83.8444 132° Southeast 114 131 4,900  Level Jacksonville Center
Sun 09:38:43 PM 29.9625 -83.8156 127° Southeast 114 131 4,900  Level Jacksonville Center
Sun 09:39:43 PM 29.9397 -83.7892 135° Southeast 119 137 4,900  Level Jacksonville Center
Sun 09:40:43 PM 29.9150 -83.7600 134° Southeast 119 137 4,900  Level Jacksonville Center
Sun 09:41:43 PM 29.8900 -83.7383 143° Southeast 119 137 4,900  Level Jacksonville Center
Sun 09:42:43 PM 29.8608 -83.7164 147° Southeast 119 137 4,900  Level Jacksonville Center
Sun 09:43:43 PM 29.8381 -83.6900 135° Southeast 119 137 4,900  Level Jacksonville Center
Sun 09:44:43 PM 29.8175 -83.6586 127° Southeast 119 137 4,900  Level Jacksonville Center
Sun 09:45:43 PM 29.7947 -83.6297 132° Southeast 119 137 4,900  Level Jacksonville Center
Sun 09:46:43 PM 29.7697 -83.6008 135° Southeast 119 137 4,900  Level Jacksonville Center
Sun 09:47:43 PM 29.7469 -83.5719 132° Southeast 119 137 4,900  Level Jacksonville Center
Sun 09:48:43 PM 29.7242 -83.5431 132° Southeast 119 137 4,900  Level Jacksonville Center
Sun 09:49:43 PM 29.7014 -83.5142 132° Southeast 119 137 4,900  Level Jacksonville Center
Sun 09:50:43 PM 29.6783 -83.4878 135° Southeast 119 137 4,900  Level Jacksonville Center
Sun 09:51:43 PM 29.6578 -83.4614 132° Southeast 119 137 4,900 50 Level Jacksonville Center
Sun 09:52:43 PM 29.6347 -83.4350 135° Southeast 119 137 5,000  Climbing Jacksonville Center
Sun 09:53:43 PM 29.6100 -83.4086 137° Southeast 119 137 4,900  Descending Jacksonville Center
Sun 09:54:43 PM 29.5850 -83.3797 135° Southeast 119 137 5,000  Climbing Jacksonville Center
Sun 09:55:43 PM 29.5642 -83.3533 132° Southeast 119 137 4,900 -50 Descending Jacksonville Center
Sun 09:56:43 PM 29.5372 -83.3294 142° Southeast 119 137 4,900  Level Jacksonville Center
Sun 09:57:43 PM 29.5122 -83.3031 137° Southeast 119 137 4,900  Level Jacksonville Center
Sun 09:58:43 PM 29.4914 -83.2767 132° Southeast 119 137 4,900  Level Jacksonville Center
Sun 09:59:43 PM 29.4686 -83.2503 135° Southeast 119 137 4,900  Level Jacksonville Center
Sun 09:59:58 PM 29.4561 -83.2408 147° Southeast 120 138 4,900  Level Jacksonville Center
Sun 10:00:43 PM 29.4436 -83.2217 127° Southeast 119 137 4,900  Level Jacksonville Center
Sun 10:01:05 PM 29.4311 -83.2097 140° Southeast 121 139 4,900  Level Jacksonville Center
Sun 10:01:43 PM 29.4206 -83.1953 130° Southeast 119 137 4,900  Level Jacksonville Center
Sun 10:02:05 PM 29.4081 -83.1833 140° Southeast 119 137 4,900 100 Level Jacksonville Center
Sun 10:02:43 PM 29.3956 -83.1714 140° Southeast 119 137 5,000  Climbing Jacksonville Center
Sun 10:03:06 PM 29.3811 -83.1619 150° Southeast 119 137 4,900 -100 Descending Jacksonville Center
Sun 10:03:43 PM 29.3686 -83.1475 135° Southeast 119 137 4,900  Level Jacksonville Center
Sun 10:04:07 PM 29.3561 -83.1333 135° Southeast 119 137 4,900  Level Jacksonville Center
Sun 10:04:43 PM 29.3456 -83.1189 130° Southeast 124 143 4,900  Level Jacksonville Center
Sun 10:05:07 PM 29.3331 -83.1069 140° Southeast 119 137 4,900  Level Jacksonville Center
Sun 10:05:43 PM 29.3228 -83.0903 125° Southeast 119 137 4,900  Level Jacksonville Center
Sun 10:06:20 PM 29.3081 -83.0736 135° Southeast 119 137 4,900  Level Jacksonville Center
Sun 10:06:43 PM 29.3039 -83.0617 112° Southeast 119 137 4,900  Level Jacksonville Center
Sun 10:07:21 PM 29.2853 -83.0425 138° Southeast 118 136 4,900  Level Jacksonville Center
Sun 10:07:43 PM 29.2811 -83.0331 117° Southeast 119 137 4,900  Level Jacksonville Center
Sun 10:08:21 PM 29.2622 -83.0117 135° Southeast 118 136 4,900  Level Jacksonville Center
Sun 10:08:43 PM 29.2581 -83.0067 134° Southeast 119 137 4,900  Level Jacksonville Center
Sun 10:09:22 PM 29.2372 -82.9878 142° Southeast 121 139 4,900  Level Jacksonville Center
Sun 10:09:43 PM 29.2331 -82.9831 135° Southeast 124 143 4,900 90 Level Jacksonville Center
Sun 10:10:29 PM 29.2142 -82.9617 135° Southeast 116 133 5,000 100 Climbing Jacksonville Center
Sun 10:10:43 PM 29.2100 -82.9567 134° Southeast 124 143 5,000 -100 Level Jacksonville Center
Sun 10:11:29 PM 29.1892 -82.9306 132° Southeast 117 135 4,900 -100 Descending Jacksonville Center
Sun 10:11:43 PM 29.1850 -82.9306 180° South 119 137 4,900  Level Jacksonville Center
Sun 10:12:30 PM 29.1642 -82.9069 135° Southeast 119 137 4,900  Level Jacksonville Center
Sun 10:12:43 PM 29.1642 -82.9044 90° East 119 137 4,900  Level Jacksonville Center
Sun 10:13:31 PM 29.1414 -82.8806 138° Southeast 119 137 4,900  Level Jacksonville Center
Sun 10:13:43 PM 29.1392 -82.8783 139° Southeast 119 137 4,900  Level Jacksonville Center
Sun 10:14:25 PM 29.1244 -82.8522 123° Southeast 122 140 4,900 -100 Level Jacksonville Center
Sun 10:14:43 PM 29.1203 -82.8428 117° Southeast 119 137 4,800 -448 Descending Jacksonville Center
Sun 10:15:32 PM 29.1036 -82.8189 129° Southeast 114 131 4,400 -495 Descending Jacksonville Center
Sun 10:16:32 PM 29.0828 -82.7953 135° Southeast 113 130 3,900 -550 Descending Jacksonville Center
Sun 10:17:21 PM 29.0619 -82.7739 138° Southeast 112 129 3,400 -550 Descending Jacksonville Center
Sun 10:18:21 PM 29.0411 -82.7478 132° Southeast 112 129 2,900 -522 Descending Jacksonville Center
Sun 10:19:16 PM 29.0200 -82.7264 138° Southeast 109 125 2,400 -517 Descending Jacksonville Center
Sun 10:20:17 PM 28.9950 -82.7075 147° Southeast 111 128 1,900 -492 Descending Jacksonville Center

Login

Don't have an account? Register now (free) for customized features, flight alerts, and more!